createdAt,value
2022-12-18T00:00:19.565Z,96.40
2022-12-18T00:03:08.474Z,91.70
2022-12-18T00:05:37.896Z,94.10
2022-12-18T00:08:09.593Z,95.60
2022-12-18T00:10:38.813Z,97.40
2022-12-18T00:13:09.955Z,101.00
2022-12-18T00:15:40.960Z,98.90
2022-12-18T00:18:09.765Z,91.20
2022-12-18T00:20:40.103Z,96.10
2022-12-18T00:23:08.331Z,99.10
2022-12-18T00:25:37.896Z,97.40
2022-12-18T00:28:06.712Z,92.30
2022-12-18T00:30:34.913Z,94.10
2022-12-18T00:33:03.015Z,96.00
2022-12-18T00:35:33.177Z,115.50
2022-12-18T00:38:01.417Z,98.90
2022-12-18T00:40:29.517Z,91.80
2022-12-18T00:42:57.719Z,90.50
2022-12-18T00:45:28.466Z,92.10
2022-12-18T00:47:57.902Z,93.70
2022-12-18T00:50:27.165Z,95.20
2022-12-18T00:52:55.356Z,95.40
2022-12-18T00:55:24.019Z,107.20
2022-12-18T00:57:53.615Z,101.30
2022-12-18T01:00:22.271Z,104.40
2022-12-18T01:02:50.737Z,100.10
2022-12-18T01:05:19.448Z,90.40
2022-12-18T01:07:47.654Z,99.70
2022-12-18T01:10:15.916Z,109.00
2022-12-18T01:12:44.168Z,99.20
2022-12-18T01:15:14.395Z,95.60
2022-12-18T01:17:43.367Z,101.60
2022-12-18T01:20:13.488Z,106.20
2022-12-18T01:22:41.782Z,100.60
2022-12-18T01:25:10.463Z,91.70
2022-12-18T01:27:38.713Z,94.20
2022-12-18T01:30:07.581Z,94.80
2022-12-18T01:32:35.760Z,97.30
2022-12-18T01:35:04.992Z,106.70
2022-12-18T01:37:33.658Z,97.40
2022-12-18T01:40:01.912Z,101.10
2022-12-18T01:42:30.133Z,97.20
2022-12-18T01:45:07.715Z,95.00
2022-12-18T01:47:47.796Z,89.50
2022-12-18T01:50:45.395Z,98.40
2022-12-18T01:53:23.791Z,103.80
2022-12-18T01:55:55.009Z,97.10
2022-12-18T01:59:14.891Z,89.60
2022-12-18T02:01:43.164Z,83.20
2022-12-18T02:04:23.768Z,84.70
2022-12-18T02:07:07.609Z,86.30
2022-12-18T02:09:44.845Z,82.50
2022-12-18T02:12:25.280Z,95.00
2022-12-18T02:15:01.708Z,94.40
2022-12-18T02:17:36.147Z,98.50
2022-12-18T02:20:21.456Z,82.20
2022-12-18T02:23:08.922Z,79.70
2022-12-18T02:26:05.940Z,85.90
2022-12-18T02:28:43.766Z,94.50
2022-12-18T02:31:17.536Z,89.20
2022-12-18T02:33:47.340Z,89.60
2022-12-18T02:36:18.387Z,86.50
2022-12-18T02:38:48.131Z,87.00
2022-12-18T02:41:18.058Z,77.20
2022-12-18T02:43:57.207Z,71.30
2022-12-18T02:46:47.465Z,77.40
2022-12-18T02:49:35.111Z,74.50
2022-12-18T02:52:29.931Z,76.70
2022-12-18T02:55:23.065Z,75.20
2022-12-18T02:58:03.848Z,91.00
2022-12-18T03:01:04.834Z,82.20
2022-12-18T03:03:53.069Z,84.20
2022-12-18T03:06:28.304Z,91.80
2022-12-18T03:09:08.391Z,87.20
2022-12-18T03:12:01.555Z,90.40
2022-12-18T03:14:33.810Z,82.20
2022-12-18T03:17:05.332Z,80.70
2022-12-18T03:19:35.940Z,83.40
2022-12-18T03:22:08.237Z,83.50
2022-12-18T03:24:47.445Z,84.70
2022-12-18T03:27:20.737Z,95.50
2022-12-18T03:30:00.377Z,87.10
2022-12-18T03:32:34.320Z,82.30
2022-12-18T03:35:06.506Z,98.80
2022-12-18T03:37:37.557Z,86.00
2022-12-18T03:40:07.258Z,81.00
2022-12-18T03:42:35.753Z,81.20
2022-12-18T03:45:21.901Z,86.40
2022-12-18T03:48:09.772Z,84.70
2022-12-18T03:51:06.545Z,83.00
2022-12-18T03:54:00.634Z,75.70
2022-12-18T03:56:40.127Z,78.60
2022-12-18T03:59:12.596Z,83.20
2022-12-18T04:01:47.079Z,86.90
2022-12-18T04:04:19.041Z,85.20
2022-12-18T04:06:51.160Z,90.20
2022-12-18T04:09:21.908Z,85.90
2022-12-18T04:11:50.310Z,89.30
2022-12-18T04:14:18.754Z,87.40
2022-12-18T04:16:50.075Z,83.70
2022-12-18T04:19:19.568Z,78.50
2022-12-18T04:21:49.255Z,80.30
2022-12-18T04:24:17.418Z,77.60
2022-12-18T04:26:53.475Z,93.20
2022-12-18T04:29:29.328Z,88.70
2022-12-18T04:31:58.322Z,79.80
2022-12-18T04:34:27.555Z,81.40
2022-12-18T04:36:56.524Z,88.70
2022-12-18T04:39:25.572Z,84.90
2022-12-18T04:41:56.138Z,83.00
2022-12-18T04:44:24.715Z,71.00
2022-12-18T04:46:52.875Z,83.10
2022-12-18T04:49:21.113Z,83.60
2022-12-18T04:51:49.311Z,77.70
2022-12-18T04:54:17.524Z,85.50
2022-12-18T04:56:45.792Z,69.30
2022-12-18T04:59:15.644Z,78.70
2022-12-18T05:01:44.028Z,89.30
2022-12-18T05:04:12.966Z,88.70
2022-12-18T05:06:41.182Z,68.60
2022-12-18T05:09:09.333Z,80.50
2022-12-18T05:11:38.177Z,74.00
2022-12-18T05:14:06.291Z,88.70
2022-12-18T05:16:35.192Z,75.00
2022-12-18T05:19:03.379Z,74.60
2022-12-18T05:21:32.028Z,81.10
2022-12-18T05:24:00.389Z,73.00
2022-12-18T05:26:28.660Z,71.30
2022-12-18T05:28:56.740Z,74.90
2022-12-18T05:31:24.834Z,85.70
2022-12-18T05:33:53.036Z,88.30
2022-12-18T05:36:21.304Z,71.40
2022-12-18T05:38:49.495Z,76.60
2022-12-18T05:41:17.657Z,77.90
2022-12-18T05:43:45.834Z,70.10
2022-12-18T05:46:17.490Z,81.10
2022-12-18T05:48:46.537Z,79.40
2022-12-18T05:51:18.031Z,81.30
2022-12-18T05:53:47.032Z,96.30
2022-12-18T05:56:18.749Z,84.10
2022-12-18T05:58:48.219Z,92.90
2022-12-18T06:01:23.660Z,77.10
2022-12-18T06:03:52.185Z,77.30
2022-12-18T06:06:23.656Z,75.10
2022-12-18T06:08:52.339Z,76.60
2022-12-18T06:11:24.031Z,81.80
2022-12-18T06:13:59.075Z,81.80
2022-12-18T06:16:32.093Z,85.00
2022-12-18T06:19:02.121Z,77.90
2022-12-18T06:21:31.500Z,75.10
2022-12-18T06:24:01.457Z,82.70
2022-12-18T06:26:29.768Z,76.60
2022-12-18T06:28:58.099Z,71.30
2022-12-18T06:31:27.246Z,72.60
2022-12-18T06:33:55.491Z,86.60
2022-12-18T06:36:23.999Z,75.90
2022-12-18T06:38:52.116Z,83.50
2022-12-18T06:41:22.140Z,82.70
2022-12-18T06:43:50.800Z,74.40
2022-12-18T06:46:19.603Z,78.20
2022-12-18T06:48:50.354Z,78.50
2022-12-18T06:51:21.001Z,85.80
2022-12-18T06:53:49.685Z,79.80
2022-12-18T06:56:18.174Z,77.10
2022-12-18T06:58:46.543Z,73.60
2022-12-18T07:01:14.996Z,72.10
2022-12-18T07:03:44.961Z,80.50
2022-12-18T07:06:21.045Z,78.00
2022-12-18T07:08:50.705Z,76.00
2022-12-18T07:11:19.239Z,74.90
2022-12-18T07:13:47.508Z,78.90
2022-12-18T07:16:24.827Z,68.90
2022-12-18T07:18:57.148Z,74.30
2022-12-18T07:21:25.839Z,83.50
2022-12-18T07:23:54.420Z,92.10
2022-12-18T07:26:23.100Z,86.20
2022-12-18T07:28:51.831Z,83.80
2022-12-18T07:31:22.817Z,84.70
2022-12-18T07:33:52.381Z,78.30
2022-12-18T07:36:24.356Z,88.00
2022-12-18T07:38:53.983Z,91.10
2022-12-18T07:41:23.328Z,70.80
2022-12-18T07:43:51.665Z,77.90
2022-12-18T07:46:20.821Z,67.20
2022-12-18T07:48:50.219Z,68.70
2022-12-18T07:51:20.282Z,85.50
2022-12-18T07:53:51.805Z,69.10
2022-12-18T07:56:27.626Z,69.10
2022-12-18T07:58:57.338Z,73.30
2022-12-18T08:01:26.014Z,72.20
2022-12-18T08:03:54.448Z,71.70
2022-12-18T08:06:24.153Z,80.80
2022-12-18T08:08:55.123Z,74.40
2022-12-18T08:11:25.374Z,77.80
2022-12-18T08:13:54.339Z,70.10
2022-12-18T08:16:23.721Z,69.30
2022-12-18T08:18:53.813Z,72.10
2022-12-18T08:21:28.721Z,72.40
2022-12-18T08:24:00.526Z,67.70
2022-12-18T08:26:31.881Z,76.80
2022-12-18T08:29:01.343Z,75.00
2022-12-18T08:31:31.942Z,76.50
2022-12-18T08:34:00.236Z,79.70
2022-12-18T08:36:28.633Z,76.50
2022-12-18T08:38:58.347Z,69.90
2022-12-18T08:41:27.845Z,73.90
2022-12-18T08:44:14.654Z,70.50
2022-12-18T08:46:45.724Z,77.20
2022-12-18T08:49:14.100Z,71.10
2022-12-18T08:51:45.513Z,79.20
2022-12-18T08:54:14.910Z,74.60
2022-12-18T08:56:43.145Z,79.10
2022-12-18T08:59:18.795Z,72.90
2022-12-18T09:01:49.314Z,77.40
2022-12-18T09:04:17.863Z,116.40
2022-12-18T09:06:45.964Z,83.20
2022-12-18T09:09:14.213Z,87.50
2022-12-18T09:11:42.733Z,83.90
2022-12-18T09:14:11.345Z,81.70
2022-12-18T09:16:40.738Z,86.40
2022-12-18T09:19:11.037Z,81.70
2022-12-18T09:21:43.387Z,81.90
2022-12-18T09:26:47.319Z,91.60
2022-12-18T09:29:18.934Z,76.00
2022-12-18T09:31:48.332Z,76.90
2022-12-18T09:34:17.953Z,79.40
2022-12-18T09:36:46.075Z,78.10
2022-12-18T09:39:16.044Z,78.20
2022-12-18T09:41:54.683Z,74.90
2022-12-18T09:44:44.950Z,78.20
2022-12-18T09:47:29.920Z,81.40
2022-12-18T09:50:02.595Z,91.40
2022-12-18T09:52:36.547Z,75.60
2022-12-18T09:55:20.971Z,76.00
2022-12-18T09:57:56.174Z,66.40
2022-12-18T10:03:02.519Z,70.20
2022-12-18T10:05:43.179Z,75.20
2022-12-18T10:08:24.120Z,68.90
2022-12-18T10:10:58.278Z,73.70
2022-12-18T10:13:33.520Z,74.30
2022-12-18T10:16:20.934Z,73.90
2022-12-18T10:19:08.364Z,73.80
2022-12-18T10:21:59.850Z,69.60
2022-12-18T10:24:41.739Z,66.50
2022-12-18T10:27:23.667Z,65.50
2022-12-18T10:29:51.961Z,71.30
2022-12-18T10:32:26.622Z,68.60
2022-12-18T10:35:00.809Z,70.60
2022-12-18T10:37:33.522Z,64.70
2022-12-18T10:40:22.028Z,74.30
2022-12-18T10:43:07.128Z,73.10
2022-12-18T10:45:36.232Z,63.00
2022-12-18T10:48:04.968Z,66.40
2022-12-18T10:51:09.143Z,73.70
2022-12-18T10:53:31.071Z,70.80
2022-12-18T10:56:00.981Z,71.70
2022-12-18T10:58:35.763Z,86.20
2022-12-18T11:01:07.200Z,82.60
2022-12-18T11:03:47.903Z,87.50
2022-12-18T11:06:23.962Z,78.10
2022-12-18T11:09:12.224Z,71.80
2022-12-18T11:11:50.329Z,80.90
2022-12-18T11:14:27.185Z,86.50
2022-12-18T11:17:24.508Z,80.20
2022-12-18T11:19:53.085Z,91.80
2022-12-18T11:22:27.526Z,75.10
2022-12-18T11:28:25.968Z,77.70
2022-12-18T11:31:33.053Z,85.00
2022-12-18T11:37:04.266Z,63.20
2022-12-18T11:39:42.355Z,69.40
2022-12-18T11:42:37.858Z,76.30
2022-12-18T11:45:12.184Z,59.90
2022-12-18T11:48:04.779Z,61.60
2022-12-18T11:50:47.432Z,61.20
2022-12-18T11:53:16.053Z,57.10
2022-12-18T11:55:51.661Z,52.50
2022-12-18T11:58:49.057Z,57.10
2022-12-18T12:01:43.392Z,47.00
2022-12-18T12:05:00.838Z,49.50
2022-12-18T12:08:04.445Z,55.80
2022-12-18T12:10:54.214Z,55.50
2022-12-18T12:13:25.309Z,62.50
2022-12-18T12:16:10.715Z,60.40
2022-12-18T12:18:51.521Z,57.60
2022-12-18T12:21:41.708Z,54.70
2022-12-18T12:24:19.044Z,59.30
2022-12-18T12:26:56.609Z,58.90
2022-12-18T12:29:52.333Z,69.40
2022-12-18T12:32:35.525Z,82.00
2022-12-18T12:35:11.823Z,67.00
2022-12-18T12:38:08.357Z,65.70
2022-12-18T12:40:58.900Z,63.50
2022-12-18T12:43:48.027Z,67.90
2022-12-18T12:46:23.050Z,66.50
2022-12-18T12:49:03.836Z,56.10
2022-12-18T12:51:38.322Z,63.90
2022-12-18T12:54:18.902Z,59.40
2022-12-18T12:57:13.843Z,66.40
2022-12-18T13:00:11.080Z,69.50
2022-12-18T13:03:04.761Z,67.60
2022-12-18T13:05:43.050Z,64.70
2022-12-18T13:08:26.850Z,69.60
2022-12-18T13:11:18.321Z,50.00
2022-12-18T13:13:56.475Z,69.40
2022-12-18T13:16:28.581Z,73.70
2022-12-18T13:19:00.036Z,73.20
2022-12-18T13:21:34.831Z,77.80
2022-12-18T13:24:24.673Z,68.80
2022-12-18T13:26:53.596Z,72.80
2022-12-18T13:29:47.433Z,79.20
2022-12-18T13:32:27.582Z,64.60
2022-12-18T13:35:18.092Z,68.60
2022-12-18T13:37:54.487Z,71.60
2022-12-18T13:40:40.885Z,75.60
2022-12-18T13:43:47.002Z,76.00
2022-12-18T13:46:20.541Z,60.60
2022-12-18T13:49:00.960Z,1510.60
2022-12-18T13:51:33.089Z,298.60
2022-12-18T13:54:37.732Z,103.50
2022-12-18T13:57:26.297Z,90.90
2022-12-18T14:00:22.371Z,92.40
2022-12-18T14:02:52.340Z,66.10
2022-12-18T14:05:26.177Z,76.00
2022-12-18T14:07:55.996Z,65.20
2022-12-18T14:10:45.529Z,62.30
2022-12-18T14:13:29.361Z,72.50
2022-12-18T14:16:01.810Z,63.60
2022-12-18T14:18:56.921Z,62.10
2022-12-18T14:21:33.785Z,61.70
2022-12-18T14:24:18.284Z,71.30
2022-12-18T14:26:50.889Z,66.10
2022-12-18T14:29:28.565Z,73.60
2022-12-18T14:32:10.564Z,72.30
2022-12-18T14:34:45.109Z,56.50
2022-12-18T14:37:16.814Z,59.90
2022-12-18T14:39:55.443Z,60.30
2022-12-18T14:42:24.358Z,61.00
2022-12-18T14:45:13.353Z,61.70
2022-12-18T14:47:45.132Z,59.40
2022-12-18T14:50:17.664Z,61.00
2022-12-18T14:52:46.070Z,55.20
2022-12-18T14:55:22.611Z,59.10
2022-12-18T14:57:53.837Z,55.20
2022-12-18T15:00:24.761Z,57.40
2022-12-18T15:02:58.971Z,52.40
2022-12-18T15:05:33.140Z,83.50
2022-12-18T15:08:03.752Z,63.80
2022-12-18T15:10:34.255Z,71.10
2022-12-18T15:13:04.125Z,57.30
2022-12-18T15:15:53.896Z,63.90
2022-12-18T15:18:31.082Z,65.10
2022-12-18T15:21:08.285Z,56.60
2022-12-18T15:23:47.026Z,51.80
2022-12-18T15:26:19.611Z,59.20
2022-12-18T15:28:58.592Z,61.60
2022-12-18T15:31:37.545Z,54.70
2022-12-18T15:34:08.752Z,53.50
2022-12-18T15:36:38.073Z,61.50
2022-12-18T15:39:07.063Z,66.00
2022-12-18T15:41:37.706Z,67.40
2022-12-18T15:44:24.381Z,61.70
2022-12-18T15:46:52.620Z,69.50
2022-12-18T15:49:20.979Z,83.70
2022-12-18T15:51:59.567Z,168.00
2022-12-18T15:54:46.574Z,96.00
2022-12-18T15:57:24.372Z,65.40
2022-12-18T16:00:13.910Z,55.50
2022-12-18T16:02:42.186Z,63.90
2022-12-18T16:05:18.201Z,65.60
2022-12-18T16:07:47.025Z,53.90
2022-12-18T16:10:17.126Z,55.70
2022-12-18T16:12:49.950Z,57.60
2022-12-18T16:15:24.256Z,49.00
2022-12-18T16:17:55.567Z,51.50
2022-12-18T16:20:40.286Z,57.70
2022-12-18T16:23:09.043Z,57.60
2022-12-18T16:25:38.396Z,61.80
2022-12-18T16:28:11.547Z,74.60
2022-12-18T16:30:41.576Z,66.30
2022-12-18T16:33:12.495Z,64.10
2022-12-18T16:35:41.054Z,61.60
2022-12-18T16:38:09.418Z,61.80
2022-12-18T16:40:58.939Z,60.00
2022-12-18T16:43:28.348Z,61.40
2022-12-18T16:46:00.057Z,56.10
2022-12-18T16:48:32.873Z,58.40
2022-12-18T16:51:04.429Z,63.90
2022-12-18T16:53:35.809Z,64.00
2022-12-18T16:56:05.060Z,56.40
2022-12-18T16:58:35.006Z,78.00
2022-12-18T17:01:10.134Z,62.00
2022-12-18T17:03:38.817Z,53.40
2022-12-18T17:06:07.794Z,58.70
2022-12-18T17:08:36.044Z,55.70
2022-12-18T17:11:07.976Z,53.60
2022-12-18T17:13:36.224Z,64.70
2022-12-18T17:16:06.990Z,68.80
2022-12-18T17:18:36.257Z,63.80
2022-12-18T17:21:07.821Z,68.70
2022-12-18T17:23:37.358Z,63.90
2022-12-18T17:26:08.479Z,67.60
2022-12-18T17:28:39.896Z,58.70
2022-12-18T17:31:14.142Z,58.40
2022-12-18T17:33:43.017Z,56.10
2022-12-18T17:36:12.942Z,60.20
2022-12-18T17:38:41.604Z,56.50
2022-12-18T17:41:11.990Z,59.80
2022-12-18T17:43:45.882Z,56.20
2022-12-18T17:46:15.446Z,53.50
2022-12-18T17:48:43.805Z,48.70
2022-12-18T17:51:12.775Z,55.10
2022-12-18T17:53:42.348Z,53.40
2022-12-18T17:56:16.869Z,77.00
2022-12-18T17:58:45.500Z,63.60
2022-12-18T18:01:23.872Z,56.30
2022-12-18T18:03:54.272Z,60.00
2022-12-18T18:06:23.591Z,62.40
2022-12-18T18:08:52.165Z,65.60
2022-12-18T18:11:41.828Z,60.10
2022-12-18T18:14:17.075Z,56.40
2022-12-18T18:16:50.614Z,62.30
2022-12-18T18:19:24.196Z,64.30
2022-12-18T18:21:54.567Z,67.70
2022-12-18T18:24:23.726Z,77.90
2022-12-18T18:26:52.668Z,106.80
2022-12-18T18:29:26.893Z,89.10
2022-12-18T18:31:57.046Z,69.20
2022-12-18T18:34:27.932Z,73.50
2022-12-18T18:36:56.286Z,69.80
2022-12-18T18:39:25.720Z,57.50
2022-12-18T18:41:54.182Z,58.80
2022-12-18T18:44:26.025Z,56.00
2022-12-18T18:46:56.533Z,57.40
2022-12-18T18:49:28.114Z,63.80
2022-12-18T18:51:58.108Z,64.60
2022-12-18T18:54:26.464Z,58.80
2022-12-18T18:59:44.061Z,63.00
2022-12-18T19:02:14.603Z,67.10
2022-12-18T19:04:47.863Z,69.30
2022-12-18T19:07:24.063Z,68.80
2022-12-18T19:10:05.145Z,181.70
2022-12-18T19:12:53.802Z,206.10
2022-12-18T19:15:23.312Z,1002.60
2022-12-18T19:17:52.697Z,753.60
2022-12-18T19:20:21.566Z,482.20
2022-12-18T19:22:54.898Z,481.10
2022-12-18T19:25:38.431Z,442.90
2022-12-18T19:28:21.668Z,309.60
2022-12-18T19:30:58.892Z,711.60
2022-12-18T19:33:48.180Z,621.90
2022-12-18T19:36:25.396Z,492.70
2022-12-18T19:38:56.941Z,423.30
2022-12-18T19:41:26.201Z,276.50
2022-12-18T19:43:57.510Z,161.30
2022-12-18T19:46:25.847Z,241.50
2022-12-18T19:48:54.056Z,428.70
2022-12-18T19:51:28.457Z,327.80
2022-12-18T19:53:59.801Z,213.50
2022-12-18T19:56:32.156Z,180.20
2022-12-18T19:59:01.568Z,271.00
2022-12-18T20:01:30.884Z,257.70
2022-12-18T20:04:00.332Z,203.30
2022-12-18T20:06:33.959Z,204.40
2022-12-18T20:09:05.709Z,194.20
2022-12-18T20:11:40.163Z,179.40
2022-12-18T20:14:12.510Z,172.90
2022-12-18T20:16:41.575Z,206.40
2022-12-18T20:19:14.857Z,228.20
2022-12-18T20:21:44.852Z,221.20
2022-12-18T20:24:13.311Z,212.90
2022-12-18T20:26:41.696Z,209.60
2022-12-18T20:29:10.188Z,204.30
2022-12-18T20:31:38.660Z,215.40
2022-12-18T20:34:07.232Z,223.10
2022-12-18T20:36:37.651Z,226.60
2022-12-18T20:39:07.638Z,269.10
2022-12-18T20:41:39.239Z,298.10
2022-12-18T20:44:21.737Z,356.00
2022-12-18T20:46:54.116Z,260.80
2022-12-18T20:49:24.016Z,379.50
2022-12-18T20:51:54.339Z,432.90
2022-12-18T20:54:24.291Z,394.30
2022-12-18T20:56:52.849Z,475.60
2022-12-18T20:59:21.264Z,240.70
2022-12-18T21:01:50.074Z,271.30
2022-12-18T21:04:19.370Z,204.40
2022-12-18T21:06:53.375Z,224.00
2022-12-18T21:09:26.117Z,209.50
2022-12-18T21:12:14.047Z,211.90
2022-12-18T21:14:43.424Z,175.40
2022-12-18T21:17:12.055Z,205.40
2022-12-18T21:19:40.371Z,198.50
2022-12-18T21:22:10.184Z,197.70
2022-12-18T21:24:38.363Z,169.90
2022-12-18T21:27:06.544Z,180.90
2022-12-18T21:29:36.368Z,226.00
2022-12-18T21:32:05.406Z,254.90
2022-12-18T21:34:34.246Z,206.40
2022-12-18T21:37:03.787Z,192.60
2022-12-18T21:39:32.834Z,183.40
2022-12-18T21:42:19.556Z,177.70
2022-12-18T21:44:49.232Z,196.10
2022-12-18T21:47:22.543Z,229.70
2022-12-18T21:49:52.940Z,236.10
2022-12-18T21:52:31.249Z,320.40
2022-12-18T21:55:08.581Z,262.50
2022-12-18T21:57:39.475Z,230.30
2022-12-18T22:00:18.955Z,205.40
2022-12-18T22:03:04.904Z,169.10
2022-12-18T22:05:37.587Z,145.90
2022-12-18T22:08:07.053Z,138.80
2022-12-18T22:10:36.355Z,155.20
2022-12-18T22:13:06.336Z,140.00
2022-12-18T22:15:34.600Z,136.70
2022-12-18T22:18:03.038Z,162.60
2022-12-18T22:20:31.319Z,193.30
2022-12-18T22:23:02.872Z,168.80
2022-12-18T22:28:25.692Z,132.10
2022-12-18T22:30:59.133Z,142.50
2022-12-18T22:33:28.566Z,134.20
2022-12-18T22:35:56.904Z,131.70
2022-12-18T22:38:25.292Z,136.80
2022-12-18T22:40:54.743Z,154.90
2022-12-18T22:43:23.175Z,141.10
2022-12-18T22:45:51.300Z,141.20
2022-12-18T22:48:19.593Z,134.20
2022-12-18T22:50:47.748Z,155.90
2022-12-18T22:53:17.274Z,153.70
2022-12-18T22:55:45.388Z,219.90
2022-12-18T22:58:13.750Z,216.80
2022-12-18T23:00:41.848Z,378.60
2022-12-18T23:03:10.375Z,169.60
2022-12-18T23:05:38.629Z,218.90
2022-12-18T23:08:06.720Z,183.00
2022-12-18T23:10:38.541Z,175.10
2022-12-18T23:13:06.943Z,127.60
2022-12-18T23:15:35.324Z,148.50
2022-12-18T23:18:03.817Z,143.70
2022-12-18T23:20:32.086Z,142.80
2022-12-18T23:23:00.193Z,143.20
2022-12-18T23:25:28.298Z,150.40
2022-12-18T23:27:56.514Z,146.70
2022-12-18T23:30:24.756Z,172.80
2022-12-18T23:32:52.887Z,124.50
2022-12-18T23:35:21.347Z,133.50
2022-12-18T23:37:59.331Z,195.20
2022-12-18T23:40:29.623Z,182.30
2022-12-18T23:42:59.287Z,139.70
2022-12-18T23:45:28.073Z,137.90
2022-12-18T23:47:56.372Z,109.20
2022-12-18T23:50:28.866Z,109.50
2022-12-18T23:53:04.901Z,103.70
2022-12-18T23:55:39.818Z,103.30
2022-12-18T23:58:15.813Z,106.60
